Latest Weather Observations for Coondewanna

IDW60801

Issued at 10:33 am WST Tuesday 22 September 2020 (issued every 10 minutes, with the page automatically refreshed every 10 minutes)

About weather observations | Map of weather stations | Latest weather observations for WA | Other Formats
Station Details ID: 505051 Name: COONDEWANNA Lat: -22.96 Lon: 118.81 Height: 697.63 m
Data from the previous 72 hours. | See also: Recent months for locations in Western Australia
Date/Time
WST
Temp
°C
App
Temp
°C
Dew
Point
°C
Rel
Hum
%
Delta-T
°C
Wind Press
QNH
hPa
Press
MSL
hPa
Rain since
9am
mm
Dir  Spd
km/h
Gust
km/h
Spd
kts
Gust
kts
22/10:30am 22.4 15.7 -8.4 12 12.2 ESE 20 30 11 16 1020.8 1017.5 0.0
22/10:00am 22.0 15.0 -7.6 13 11.9 E 22 30 12 16 1021.1 1017.8 0.0
22/09:30am 21.3 13.4 -8.2 13 11.7 E 26 37 14 20 1021.1 1017.8 0.0
22/09:00am 20.2 11.7 -7.2 15 10.9 E 30 41 16 22 1021.5 1018.2 0.0
22/08:30am 19.3 11.2 -7.1 16 10.4 E 28 35 15 19 1021.6 1018.3 0.0
22/08:00am 18.1 11.1 -7.3 17 9.8 ESE 22 30 12 16 1021.4 1018.0 0.0
22/07:30am 16.6 10.2 -7.1 19 9.1 ESE 19 24 10 13 1021.3 1017.9 0.0
22/07:00am 15.7 9.6 -7.2 20 8.7 E 17 22 9 12 1020.8 1017.5 0.0
22/06:30am 13.8 9.7 -6.9 23 7.7 E 7 11 4 6 1020.4 1017.1 0.0
22/06:00am 12.1 8.1 -7.8 24 7.1 E 6 11 3 6 1020.1 1016.7 0.0
22/05:30am 12.8 8.8 -7.8 23 7.5 ENE 6 9 3 5 1019.6 1016.3 0.0
22/05:00am 13.7 9.6 -8.2 21 7.9 ESE 6 9 3 5 1019.1 1015.8 0.0
22/04:30am 13.5 8.9 -8.4 21 7.9 NE 9 13 5 7 1018.8 1015.4 0.0
22/04:00am 13.7 9.4 -8.8 20 8.0 NNE 7 13 4 7 1018.6 1015.2 0.0
22/03:30am 13.0 8.9 -8.8 21 7.7 SSE 6 11 3 6 1018.5 1015.1 0.0
22/03:00am 14.7 10.4 -8.7 19 8.5 SE 7 11 4 6 1018.7 1015.3 0.0
22/02:30am 14.8 10.1 -8.6 19 8.5 ESE 9 13 5 7 1019.1 1015.8 0.0
22/02:00am 15.2 10.9 -8.9 18 8.7 ESE 7 13 4 7 1019.1 1015.8 0.0
22/01:30am 14.9 10.3 -8.5 19 8.6 E 9 11 5 6 1019.0 1015.7 0.0
22/01:00am 12.3 8.0 -9.4 21 7.5 ENE 7 11 4 6 1018.9 1015.6 0.0
22/12:30am 16.2 10.8 -8.8 17 9.2 SE 13 17 7 9 1019.2 1015.9 0.0
22/12:00am 11.9 7.5 -10.3 20 7.5 S 7 9 4 5 1019.1 1015.8 0.0
 
Date/Time
WST
Temp
°C
App
Temp
°C
Dew
Point
°C
Rel
Hum
%
Delta-T
°C
Wind Press
QNH
hPa
Press
MSL
hPa
Rain since
9am
mm
Dir  Spd
km/h
Gust
km/h
Spd
kts
Gust
kts
21/11:30pm 12.7 8.3 -10.3 19 7.9 S 7 9 4 5 1019.1 1015.8 0.0
21/11:00pm 14.2 10.4 -9.7 18 8.4 S 4 7 2 4 1019.2 1015.9 0.0
21/10:30pm 16.1 11.4 -9.7 16 9.3 SSE 9 11 5 6 1019.3 1016.0 0.0
21/10:00pm 13.9 9.1 -10.0 18 8.3 S 9 11 5 6 1019.5 1016.2 0.0
21/09:30pm 17.6 12.4 -10.2 14 10.1 SSE 11 13 6 7 1019.5 1016.2 0.0
21/09:00pm 18.2 13.0 -10.6 13 10.5 SSE 11 15 6 8 1019.4 1016.1 0.0
21/08:30pm 17.4 12.5 -11.3 13 10.2 SSE 9 13 5 7 1019.2 1015.9 0.0
21/08:00pm 19.4 14.6 -10.7 12 11.1 SSE 9 11 5 6 1019.0 1015.7 0.0
21/07:30pm 20.1 14.9 -11.2 11 11.5 SSE 11 13 6 7 1018.6 1015.2 0.0
21/07:00pm 21.5 15.9 -11.4 10 12.2 SSE 13 17 7 9 1018.4 1015.0 0.0
21/06:30pm 22.2 16.2 -10.8 10 12.5 SSE 15 17 8 9 1017.8 1014.5 0.0
21/06:00pm 23.6 18.0 -11.1 9 13.3 SSE 13 19 7 10 1017.4 1014.0 0.0
21/05:30pm 24.9 19.4 -10.1 9 13.8 SSE 13 19 7 10 1017.0 1013.6 0.0
21/05:00pm 25.1 20.0 -10.0 9 13.9 SSW 11 19 6 10 1016.8 1013.4 0.0
21/04:30pm 25.1 20.3 -10.0 9 13.9 SSW 9 17 5 9 1016.8 1013.4 0.0
21/04:00pm 25.6 20.1 -9.6 9 14.1 SW 13 20 7 11 1016.8 1013.4 0.0
21/03:30pm 26.3 20.8 -9.1 9 14.4 WNW 13 26 7 14 1016.5 1013.2 0.0
21/03:00pm 25.5 19.6 -9.7 9 14.1 WSW 15 20 8 11 1016.8 1013.4 0.0
21/02:30pm 24.8 19.7 -8.8 10 13.6 SSW 11 20 6 11 1016.9 1013.5 0.0
21/02:00pm 23.8 18.3 -9.6 10 13.2 SSE 13 22 7 12 1017.3 1013.9 0.0
21/01:30pm 24.0 18.6 -8.2 11 13.1 S 13 20 7 11 1017.7 1014.4 0.0
21/01:00pm 23.0 17.3 -7.9 12 12.5 S 15 20 8 11 1018.3 1014.9 0.0
21/12:30pm 23.3 18.0 -7.7 12 12.6 ESE 13 24 7 13 1018.6 1015.2 0.0
21/12:00pm 22.6 16.9 -7.2 13 12.1 ESE 15 26 8 14 1018.9 1015.6 0.0
21/11:30am 21.3 15.3 -6.3 15 11.3 SSE 17 24 9 13 1019.4 1016.1 0.0
21/11:00am 20.4 14.5 -5.4 17 10.6 S 17 30 9 16 1019.8 1016.4 0.0
21/10:30am 19.8 13.9 -5.2 18 10.3 S 17 26 9 14 1020.2 1016.9 0.0
21/10:00am 18.8 13.8 -4.0 21 9.5 SE 13 22 7 12 1020.4 1017.1 0.0
21/09:30am 17.8 12.0 -4.2 22 9.1 S 17 26 9 14 1020.5 1017.2 0.0
21/09:00am 17.3 11.6 -4.0 23 8.8 SE 17 24 9 13 1020.6 1017.3 0.0
21/08:30am 16.5 10.2 -3.6 25 8.3 SSE 20 26 11 14 1020.8 1017.5 0.0
21/08:00am 15.7 9.5 -3.2 27 7.8 SSE 20 26 11 14 1020.7 1017.4 0.0
21/07:30am 15.1 8.9 -3.2 28 7.5 SE 20 28 11 15 1020.3 1017.0 0.0
21/07:00am 14.4 8.7 -3.9 28 7.3 SSE 17 22 9 12 1020.0 1016.6 0.0
21/06:30am 11.4 7.1 -4.7 32 6.2 S 9 13 5 7 1019.8 1016.4 0.0
21/06:00am 8.8 4.2 -7.4 31 5.6 S 9 11 5 6 1019.4 1016.1 0.0
21/05:30am 8.6 4.0 -7.5 31 5.6 S 9 11 5 6 1019.1 1015.8 0.0
21/05:00am 9.4 5.2 -7.7 29 5.9 S 7 9 4 5 1018.7 1015.3 0.0
21/04:30am 11.1 6.6 -6.7 28 6.5 S 9 13 5 7 1018.5 1015.1 0.0
21/04:00am 12.0 7.5 -6.4 27 6.8 S 9 11 5 6 1018.3 1014.9 0.0
21/03:30am 13.1 8.3 -6.5 25 7.3 S 11 15 6 8 1018.1 1014.8 0.0
21/03:00am 13.5 8.6 -6.6 24 7.5 SSE 11 15 6 8 1018.1 1014.8 0.0
21/02:30am 14.0 8.7 -6.8 23 7.8 SSE 13 19 7 10 1018.1 1014.8 0.0
21/02:00am 14.4 8.3 -7.6 21 8.1 SSE 17 22 9 12 1018.1 1014.8 0.0
21/01:30am 15.0 8.5 -7.7 20 8.5 SSE 19 30 10 16 1018.3 1014.9 0.0
21/01:00am 15.4 8.7 -8.1 19 8.7 S 20 28 11 15 1018.3 1014.9 0.0
21/12:30am 15.5 9.3 -8.7 18 8.9 S 17 22 9 12 1018.6 1015.2 0.0
21/12:00am 16.1 10.3 -8.9 17 9.2 S 15 26 8 14 1018.7 1015.3 0.0
 
Date/Time
WST
Temp
°C
App
Temp
°C
Dew
Point
°C
Rel
Hum
%
Delta-T
°C
Wind Press
QNH
hPa
Press
MSL
hPa
Rain since
9am
mm
Dir  Spd
km/h
Gust
km/h
Spd
kts
Gust
kts
20/11:30pm 16.7 10.1 -9.2 16 9.5 S 19 28 10 15 1018.7 1015.3 0.0
20/11:00pm 17.2 10.4 -9.6 15 9.8 S 20 32 11 17 1018.6 1015.2 0.0
20/10:30pm 17.4 11.9 -10.3 14 10.0 SSW 13 17 7 9 1018.9 1015.6 0.0
20/10:00pm 17.8 11.5 -10.0 14 10.2 SSW 17 22 9 12 1018.8 1015.4 0.0
20/09:30pm 18.2 11.9 -10.6 13 10.5 SSW 17 22 9 12 1018.9 1015.6 0.0
20/09:00pm 18.4 12.8 -10.5 13 10.5 SSW 13 19 7 10 1018.9 1015.6 0.0
20/08:30pm 18.8 13.6 -10.2 13 10.7 SSW 11 17 6 9 1018.6 1015.2 0.0
20/08:00pm 19.3 13.3 -10.8 12 11.0 SSW 15 17 8 9 1018.3 1014.9 0.0
20/07:30pm 20.2 14.3 -10.1 12 11.4 SSW 15 20 8 11 1017.8 1014.5 0.0
20/07:00pm 20.7 14.1 -9.7 12 11.6 SSW 19 24 10 13 1017.4 1014.0 0.0
20/06:30pm 21.3 15.1 -9.2 12 11.8 SSW 17 20 9 11 1017.0 1013.6 0.0
20/06:00pm 22.4 15.8 -9.5 11 12.4 SW 19 26 10 14 1016.9 1013.5 0.0
20/05:30pm 24.1 17.5 -9.4 10 13.3 WSW 19 26 10 14 1016.5 1013.2 0.0
20/05:00pm 24.5 17.8 -10.4 9 13.6 SW 19 26 10 14 1016.2 1012.8 0.0
20/04:30pm 25.0 18.1 -10.0 9 13.9 SW 20 28 11 15 1016.0 1012.6 0.0
20/04:00pm 25.2 18.4 -9.9 9 14.0 SW 20 30 11 16 1015.9 1012.5 0.0
20/03:30pm 25.3 18.5 -9.8 9 14.0 SSW 20 33 11 18 1015.8 1012.4 0.0
20/03:00pm 25.7 19.1 -9.5 9 14.2 WSW 19 32 10 17 1015.8 1012.4 0.0
20/02:30pm 25.1 18.3 -11.4 8 14.1 WSW 19 30 10 16 1016.0 1012.6 0.0
20/02:00pm 25.4 18.6 -11.2 8 14.2 W 19 30 10 16 1016.1 1012.7 0.0
20/01:30pm 25.4 18.8 -9.7 9 14.0 SSW 19 30 10 16 1016.4 1013.1 0.0
20/01:00pm 24.8 20.1 -5.5 13 13.0 SW 11 30 6 16 1016.7 1013.3 0.0
20/12:30pm 23.4 18.2 -3.0 17 11.8 SW 15 26 8 14 1017.1 1013.7 0.0
20/12:00pm 23.6 18.1 -2.1 18 11.6 S 17 26 9 14 1017.3 1013.9 0.0
20/11:30am 22.5 17.2 -0.3 22 10.6 S 17 32 9 17 1017.7 1014.4 0.0
20/11:00am 21.5 17.7 1.7 27 9.5 SW 11 24 6 13 1017.9 1014.6 0.0
20/10:30am 20.9 16.7 4.0 33 8.4 SW 15 26 8 14 1018.1 1014.8 0.0
20/10:00am 20.3 16.7 5.1 37 7.7 SW 13 20 7 11 1018.5 1015.1 0.0
20/09:30am 19.4 15.6 5.8 41 7.0 SSW 15 30 8 16 1018.5 1015.1 0.0
20/09:00am 17.8 13.7 6.0 46 6.0 SSW 17 32 9 17 1018.6 1015.2 0.0
20/08:30am 17.3 13.3 6.5 49 5.5 SSW 17 22 9 12 1018.7 1015.3 0.0
20/08:00am 16.5 12.0 6.3 51 5.2 SSW 19 26 10 14 1018.7 1015.3 0.0
20/07:30am 16.0 11.4 6.4 53 4.9 SSW 20 28 11 15 1018.4 1015.0 0.0
20/07:00am 15.7 11.3 6.7 55 4.6 SSW 19 26 10 14 1017.7 1014.4 0.0
20/06:30am 15.2 12.1 7.3 59 4.1 SSW 13 19 7 10 1017.4 1014.0 0.0
20/06:00am 15.3 11.9 7.8 61 3.9 SSW 15 20 8 11 1016.8 1013.4 0.0
20/05:30am 15.4 12.4 7.9 61 3.9 SSW 13 19 7 10 1016.4 1013.1 0.0
20/05:00am 15.6 12.0 6.6 55 4.6 SSW 15 19 8 10 1016.0 1012.6 0.0
20/04:30am 15.2 10.8 4.9 50 5.0 SW 17 19 9 10 1015.6 1012.2 0.0
20/04:00am 15.8 12.9 4.5 47 5.5 WSW 9 15 5 8 1015.3 1011.9 0.0
20/03:30am 16.4 13.8 4.4 45 5.9 WSW 7 11 4 6 1015.2 1011.8 0.0
20/03:00am 15.4 13.4 4.2 47 5.4 WSW 4 7 2 4 1014.9 1011.5 0.0
20/02:30am 15.4 12.9 3.5 45 5.7 WSW 6 11 3 6 1015.0 1011.7 0.0
20/02:00am 17.3 14.6 3.9 41 6.5 W 7 9 4 5 1015.3 1011.9 0.0
20/01:30am 18.3 14.9 3.8 38 7.1 WSW 11 15 6 8 1015.3 1011.9 0.0
20/01:00am 18.8 14.9 3.4 36 7.5 W 13 17 7 9 1015.6 1012.2 0.0
20/12:30am 19.5 14.7 2.8 33 8.1 WSW 17 20 9 11 1016.0 1012.6 0.0
20/12:00am 20.3 15.4 2.2 30 8.7 WSW 17 20 9 11 1016.0 1012.6 0.0
 
Date/Time
WST
Temp
°C
App
Temp
°C
Dew
Point
°C
Rel
Hum
%
Delta-T
°C
Wind Press
QNH
hPa
Press
MSL
hPa
Rain since
9am
mm
Dir  Spd
km/h
Gust
km/h
Spd
kts
Gust
kts
19/11:30pm 20.8 16.5 1.1 27 9.3 WSW 13 19 7 10 1015.9 1012.5 0.0
19/11:00pm 21.8 16.8 1.5 26 9.7 WSW 17 22 9 12 1015.8 1012.4 0.0
19/10:30pm 23.0 18.6 5.0 31 9.3 W 17 28 9 15 1015.7 1012.3 0.0
19/10:00pm 23.4 18.5 4.9 30 9.5 WSW 20 26 11 14 1015.9 1012.5 0.0
19/09:30pm 23.9 19.1 4.8 29 9.9 W 19 28 10 15 1015.7 1012.3 0.0
19/09:00pm 24.0 19.1 4.9 29 9.9 W 20 30 11 16 1015.6 1012.2 0.0
19/08:30pm 24.6 19.3 4.9 28 10.2 WSW 22 32 12 17 1015.4 1012.0 0.0
19/08:00pm 25.1 18.6 4.8 27 10.6 WSW 28 39 15 21 1015.0 1011.7 0.0
19/07:30pm 25.4 20.3 4.0 25 11.0 W 20 28 11 15 1014.8 1011.4 0.0
19/07:00pm 26.1 19.7 3.4 23 11.6 W 26 41 14 22 1014.3 1010.9 0.0
19/06:30pm 26.6 21.0 3.2 22 11.9 W 22 32 12 17 1013.8 1010.4 0.0
19/06:00pm 27.5 20.5 1.8 19 12.9 WNW 28 41 15 22 1013.3 1009.9 0.0
19/05:30pm 28.4 20.9 1.0 17 13.6 WNW 30 44 16 24 1013.0 1009.6 0.0
19/05:00pm 29.4 21.9 1.0 16 14.2 W 30 44 16 24 1012.8 1009.4 0.0
19/04:30pm 30.0 22.4 0.6 15 14.7 WNW 30 46 16 25 1012.4 1008.9 0.0
19/04:00pm 30.5 22.8 0.0 14 15.1 WNW 30 52 16 28 1012.3 1008.8 0.0
19/03:39pm 31.0 23.6 -0.6 13 15.5 WNW 28 46 15 25 1012.2 1008.7 0.0
19/03:30pm 31.2 23.1 -0.5 13 15.6 W 32 44 17 24 1012.2 1008.7 0.0
19/03:11pm 31.1 22.4 -0.5 13 15.6 WNW 35 54 19 29 1011.9 1008.5 0.0
19/03:00pm 30.8 22.3 -1.9 12 15.7 WNW 33 46 18 25 1012.2 1008.7 0.0
19/02:30pm 31.7 23.5 -1.2 12 16.1 WNW 32 52 17 28 1012.4 1008.9 0.0
19/02:00pm 31.5 23.3 -1.3 12 16.0 WNW 32 50 17 27 1012.6 1009.2 0.0
19/01:30pm 31.5 23.3 -1.3 12 16.0 WNW 32 54 17 29 1013.0 1009.6 0.0
19/01:01pm 30.6 22.6 0.1 14 15.1 WNW 32 50 17 27 1013.3 1009.9 0.0
19/01:00pm 31.0 23.0 0.4 14 15.3 WNW 32 48 17 26 1013.2 1009.8 0.0
19/12:30pm 30.8 22.6 -0.8 13 15.5 NW 32 50 17 27 1013.8 1010.4 0.0
19/12:04pm 30.6 22.4 -0.9 13 15.4 NW 32 50 17 27 1014.2 1010.8 0.0
19/12:00pm 30.7 22.3 -0.8 13 15.4 NW 33 46 18 25 1014.2 1010.8 0.0
19/11:30am 29.8 22.7 1.3 16 14.4 WNW 28 46 15 25 1014.8 1011.4 0.0
19/11:26am 30.4 23.4 1.8 16 14.6 WNW 28 46 15 25 1014.7 1011.3 0.0
19/11:00am 29.2 23.1 2.5 18 13.7 WNW 24 37 13 20 1015.3 1011.9 0.0

Other formats

Comma delimited format used in spreadsheet applications
http://www.bom.gov.au/fwo/IDW60801/IDW60801.99312.axf

JavaScript Object Notation format (JSON) in row-major order
http://www.bom.gov.au/fwo/IDW60801/IDW60801.99312.json

Data quality

Most of these data are generated automatically and are frequently updated. Quality checks on data are not normally performed. It is possible for incorrect values to appear. Refer to information at About Latest Weather Observations and please check the disclaimer before using these data.